Time;durP1;ratioP1;P1;durP2;ratioP2;P2;SDS_P1;SDS_P2;PMS_P1;PMS_P2;Temp;Humidity;BMP_temperature;BMP_pressure;BME280_temperature;BME280_humidity;BME280_pressure;Samples;Min_cycle;Max_cycle;Signal;HPM_P1;HPM_P2
2022/03/30 00:02:00;;;;;;;23.07;10.80;;;6.00;99.90;;;;;;5013152;28;20495;-47
2022/03/30 00:04:26;;;;;;;21.23;11.73;;;6.00;99.90;;;;;;5013428;28;20483;-50
2022/03/30 00:06:52;;;;;;;22.83;12.80;;;6.00;99.90;;;;;;5012757;28;20061;-50
2022/03/30 00:09:17;;;;;;;30.03;12.27;;;6.00;99.90;;;;;;5012084;28;20042;-49
2022/03/30 00:11:43;;;;;;;22.00;11.83;;;6.00;99.90;;;;;;5012763;28;20352;-48
2022/03/30 00:14:08;;;;;;;18.13;10.27;;;6.00;99.90;;;;;;5013116;28;20392;-49
2022/03/30 00:16:34;;;;;;;22.37;12.53;;;6.00;99.90;;;;;;5012870;28;20038;-48
2022/03/30 00:19:00;;;;;;;21.52;11.75;;;6.00;99.90;;;;;;5012808;28;20088;-50
2022/03/30 00:21:26;;;;;;;19.67;11.23;;;6.00;99.90;;;;;;5013077;28;20096;-49
2022/03/30 00:23:52;;;;;;;20.57;11.93;;;5.90;99.90;;;;;;5007729;28;20320;-48
2022/03/30 00:26:19;;;;;;;25.25;11.95;;;5.90;99.90;;;;;;5012172;28;20042;-49
2022/03/30 00:28:44;;;;;;;21.33;11.88;;;5.90;99.90;;;;;;5012678;28;20100;-49
2022/03/30 00:31:11;;;;;;;25.17;13.07;;;5.80;99.90;;;;;;5012746;28;20503;-49
2022/03/30 00:33:37;;;;;;;24.85;11.30;;;5.80;99.90;;;;;;5012697;28;20034;-49
2022/03/30 00:36:03;;;;;;;20.52;10.38;;;5.80;99.90;;;;;;5012348;28;20038;-51
2022/03/30 00:38:29;;;;;;;17.58;10.88;;;5.80;99.90;;;;;;5012584;28;20136;-48
2022/03/30 00:40:54;;;;;;;23.83;11.53;;;5.70;99.90;;;;;;5011961;28;20045;-50
2022/03/30 00:43:20;;;;;;;23.70;12.23;;;5.70;99.90;;;;;;5012742;28;20038;-50
2022/03/30 00:45:46;;;;;;;26.83;13.10;;;5.60;99.90;;;;;;5012123;28;20039;-50
2022/03/30 00:48:11;;;;;;;20.40;11.27;;;5.60;99.90;;;;;;5012600;28;20088;-50
2022/03/30 00:50:37;;;;;;;24.47;13.33;;;5.50;99.90;;;;;;5012577;28;20395;-49
2022/03/30 00:53:03;;;;;;;26.47;14.90;;;5.50;99.90;;;;;;5013324;28;20046;-49
2022/03/30 00:55:29;;;;;;;17.83;12.20;;;5.50;99.90;;;;;;5011763;28;20277;-52
2022/03/30 00:57:57;;;;;;;23.85;12.38;;;5.40;99.90;;;;;;5012452;28;20041;-52
2022/03/30 01:00:23;;;;;;;23.83;11.65;;;5.40;99.90;;;;;;5012365;28;20539;-51
2022/03/30 01:02:50;;;;;;;27.13;13.13;;;5.40;99.90;;;;;;5012241;28;20088;-50
2022/03/30 01:05:16;;;;;;;21.25;12.05;;;5.40;99.90;;;;;;5012269;28;20046;-50
2022/03/30 01:07:42;;;;;;;27.00;12.32;;;5.40;99.90;;;;;;5011791;28;20105;-49
2022/03/30 01:10:09;;;;;;;24.33;12.93;;;5.40;99.90;;;;;;5011889;28;20072;-50
2022/03/30 01:12:38;;;;;;;29.42;13.65;;;5.40;99.90;;;;;;5011820;28;20542;-48
2022/03/30 01:15:06;;;;;;;22.10;11.07;;;5.40;99.90;;;;;;5011701;28;20052;-49
2022/03/30 01:17:31;;;;;;;24.88;12.82;;;5.40;99.90;;;;;;5011702;28;20056;-50
2022/03/30 01:19:57;;;;;;;25.43;12.20;;;5.40;99.90;;;;;;5011731;28;20515;-50
2022/03/30 01:22:23;;;;;;;29.40;11.60;;;5.30;99.90;;;;;;5011122;28;20046;-50
2022/03/30 01:24:49;;;;;;;19.75;11.35;;;5.20;99.90;;;;;;5011541;28;20084;-51
2022/03/30 01:27:15;;;;;;;27.17;13.32;;;5.10;99.90;;;;;;5011759;28;20112;-53
2022/03/30 01:32:26;;;;;;;19.00;12.20;;;5.10;99.90;;;;;;5011514;28;20045;-50
2022/03/30 01:35:03;;;;;;;23.80;12.50;;;5.10;99.90;;;;;;5010897;28;20038;-50
2022/03/30 01:37:30;;;;;;;;;;;5.00;99.90;;;;;;5009451;28;20112;-48
2022/03/30 01:39:57;;;;;;;20.38;11.25;;;4.90;99.90;;;;;;5011551;28;19924;-49
2022/03/30 01:42:23;;;;;;;23.90;12.57;;;4.90;99.90;;;;;;5011501;28;20042;-49
2022/03/30 01:44:49;;;;;;;23.05;12.43;;;4.90;99.90;;;;;;5010918;28;20084;-51
2022/03/30 01:47:16;;;;;;;25.20;14.05;;;4.90;99.90;;;;;;5011276;28;20479;-47
2022/03/30 01:49:42;;;;;;;32.63;14.02;;;4.80;99.90;;;;;;5011115;28;20135;-49
2022/03/30 01:52:08;;;;;;;21.67;13.47;;;4.80;99.90;;;;;;5011457;28;20038;-48
2022/03/30 01:54:35;;;;;;;;;;;4.70;99.90;;;;;;5011349;28;20073;-48
2022/03/30 01:57:00;;;;;;;24.42;14.40;;;4.70;99.90;;;;;;5011149;28;19956;-50
2022/03/30 01:59:26;;;;;;;34.03;14.90;;;4.70;99.90;;;;;;5011052;28;20046;-50
2022/03/30 02:01:52;;;;;;;20.40;13.03;;;4.70;99.90;;;;;;5010972;28;20041;-50
2022/03/30 02:04:19;;;;;;;31.92;12.95;;;4.70;99.90;;;;;;5010755;28;20095;-47
2022/03/30 02:06:44;;;;;;;20.90;13.93;;;4.80;99.90;;;;;;5010907;28;20038;-50
2022/03/30 02:09:12;;;;;;;29.70;15.20;;;4.80;99.90;;;;;;5010996;28;20060;-49
2022/03/30 02:11:38;;;;;;;32.97;15.15;;;4.80;99.90;;;;;;5010879;28;20480;-48
2022/03/30 02:14:04;;;;;;;21.73;13.60;;;4.80;99.90;;;;;;5011005;28;20442;-50
2022/03/30 02:16:29;;;;;;;27.13;13.10;;;4.80;99.90;;;;;;5010140;28;20048;-49
2022/03/30 02:18:55;;;;;;;24.40;12.40;;;4.80;99.90;;;;;;5010737;28;20073;-49
2022/03/30 02:21:20;;;;;;;25.10;12.80;;;4.80;99.90;;;;;;5010824;28;20038;-49
2022/03/30 02:23:47;;;;;;;27.90;13.07;;;4.80;99.90;;;;;;5011201;28;20040;-49
2022/03/30 02:26:14;;;;;;;30.48;15.13;;;4.80;99.90;;;;;;5010364;28;20042;-48
2022/03/30 02:28:41;;;;;;;24.92;14.02;;;4.90;99.90;;;;;;5010712;28;20522;-49
2022/03/30 02:31:07;;;;;;;26.52;12.90;;;4.80;99.90;;;;;;5010337;28;20129;-48
2022/03/30 02:33:32;;;;;;;21.58;11.25;;;4.80;99.90;;;;;;5010346;28;20042;-49
2022/03/30 02:35:58;;;;;;;26.23;13.70;;;4.80;99.90;;;;;;5010399;28;20038;-49
2022/03/30 02:38:24;;;;;;;22.27;13.67;;;4.80;99.90;;;;;;5010529;28;20319;-49
2022/03/30 02:40:49;;;;;;;27.43;12.07;;;4.80;99.90;;;;;;5010405;28;20057;-49
2022/03/30 02:43:19;;;;;;;27.13;13.83;;;4.80;99.90;;;;;;5010179;28;20058;-49
2022/03/30 02:45:46;;;;;;;27.30;13.05;;;4.80;99.90;;;;;;5009159;28;20407;-49
2022/03/30 02:48:18;;;;;;;26.02;12.85;;;4.70;99.90;;;;;;5009909;28;20095;-49
2022/03/30 02:50:45;;;;;;;23.30;12.85;;;4.80;99.90;;;;;;5010494;28;20507;-49
2022/03/30 02:53:11;;;;;;;22.77;12.82;;;4.80;99.90;;;;;;5010310;28;20443;-49
2022/03/30 02:55:37;;;;;;;28.95;13.88;;;4.80;99.90;;;;;;5010081;28;20065;-49
2022/03/30 02:58:04;;;;;;;22.90;12.40;;;4.80;99.90;;;;;;5010074;28;20479;-48
2022/03/30 03:00:31;;;;;;;24.10;12.20;;;4.70;99.90;;;;;;5010114;28;20049;-48
2022/03/30 03:02:57;;;;;;;26.15;14.05;;;4.70;99.90;;;;;;5010384;28;20460;-50
2022/03/30 03:05:22;;;;;;;26.92;13.57;;;4.70;99.90;;;;;;5009899;28;20145;-50
2022/03/30 03:07:48;;;;;;;29.73;15.33;;;4.60;99.90;;;;;;5010523;28;20492;-48
2022/03/30 03:10:13;;;;;;;29.20;14.87;;;4.60;99.90;;;;;;5010114;28;20030;-48
2022/03/30 03:12:39;;;;;;;33.85;17.60;;;4.60;99.90;;;;;;5010142;28;20034;-49
2022/03/30 03:15:06;;;;;;;31.83;15.48;;;4.50;99.90;;;;;;5009347;28;20125;-51
2022/03/30 03:17:31;;;;;;;34.42;16.35;;;4.50;99.90;;;;;;5010164;28;20057;-51
2022/03/30 03:19:57;;;;;;;25.97;14.23;;;4.40;99.90;;;;;;5010233;28;20042;-49
2022/03/30 03:22:22;;;;;;;29.13;15.03;;;4.40;99.90;;;;;;5010313;28;20054;-50
2022/03/30 03:24:48;;;;;;;30.03;16.07;;;4.40;99.90;;;;;;5009617;28;20052;-51
2022/03/30 03:27:13;;;;;;;33.70;17.40;;;4.50;99.90;;;;;;5004942;28;20040;-49
2022/03/30 03:29:39;;;;;;;36.80;16.83;;;4.50;99.90;;;;;;5009679;28;20534;-50
2022/03/30 03:32:05;;;;;;;33.10;16.43;;;4.50;99.90;;;;;;5009974;28;20046;-47
2022/03/30 03:34:30;;;;;;;27.92;15.77;;;4.50;99.90;;;;;;5010146;28;20041;-51
2022/03/30 03:36:56;;;;;;;37.97;16.10;;;4.50;99.90;;;;;;5009798;28;20042;-49
2022/03/30 03:39:21;;;;;;;30.73;16.77;;;4.60;99.90;;;;;;5009911;28;20073;-49
2022/03/30 03:41:47;;;;;;;33.33;16.60;;;4.60;99.90;;;;;;5009832;28;20562;-49
2022/03/30 03:44:13;;;;;;;31.97;16.37;;;4.60;99.90;;;;;;5011608;28;20044;-48
2022/03/30 03:46:38;;;;;;;26.80;15.40;;;4.60;99.90;;;;;;5013348;28;20460;-49
2022/03/30 03:49:04;;;;;;;26.60;16.20;;;4.70;99.90;;;;;;5013605;28;20121;-52
2022/03/30 03:51:30;;;;;;;31.92;17.85;;;4.70;99.90;;;;;;5013639;28;20469;-49
2022/03/30 03:53:56;;;;;;;32.65;17.00;;;4.70;99.90;;;;;;5013609;28;20046;-49
2022/03/30 03:56:21;;;;;;;38.30;18.13;;;4.80;99.90;;;;;;5013732;28;20042;-49
2022/03/30 03:58:51;;;;;;;28.97;16.40;;;4.80;99.90;;;;;;5013066;28;20049;-49
2022/03/30 04:01:16;;;;;;;36.70;17.48;;;4.80;99.90;;;;;;5013818;28;20054;-48
2022/03/30 04:03:42;;;;;;;36.57;17.90;;;4.80;99.90;;;;;;5013625;28;20164;-49
2022/03/30 04:06:08;;;;;;;29.70;17.60;;;4.90;99.90;;;;;;5013087;28;20109;-48
2022/03/30 04:08:34;;;;;;;35.80;16.98;;;4.90;99.90;;;;;;5013150;28;20034;-50
2022/03/30 04:11:00;;;;;;;28.70;16.30;;;4.90;99.90;;;;;;5013233;28;20455;-48
2022/03/30 04:13:26;;;;;;;28.20;18.73;;;4.90;99.90;;;;;;5012897;28;20041;-49
2022/03/30 04:15:51;;;;;;;37.10;18.03;;;5.00;99.90;;;;;;5012946;28;20268;-48
2022/03/30 04:18:17;;;;;;;35.73;18.37;;;5.00;99.90;;;;;;5012911;28;20034;-49
2022/03/30 04:20:46;;;;;;;39.23;18.73;;;5.00;99.90;;;;;;5012833;28;20280;-49
2022/03/30 04:23:11;;;;;;;32.17;18.00;;;5.00;99.90;;;;;;5012983;28;20273;-49
2022/03/30 04:25:37;;;;;;;38.37;17.20;;;5.10;99.90;;;;;;5012353;28;20431;-49
2022/03/30 04:28:03;;;;;;;31.43;18.20;;;5.10;99.90;;;;;;5012527;28;20113;-48
2022/03/30 04:30:30;;;;;;;36.35;18.52;;;5.10;99.90;;;;;;5012560;28;20269;-48
2022/03/30 04:32:55;;;;;;;37.53;19.60;;;5.10;99.90;;;;;;5012935;28;20042;-53
2022/03/30 04:35:27;;;;;;;36.53;19.50;;;5.20;99.90;;;;;;5012031;28;20073;-49
2022/03/30 04:37:54;;;;;;;41.42;20.42;;;5.20;99.90;;;;;;5012534;28;20276;-49
2022/03/30 04:40:22;;;;;;;37.40;19.92;;;5.20;99.90;;;;;;5011983;28;20095;-49
2022/03/30 04:42:48;;;;;;;39.13;20.05;;;5.30;99.90;;;;;;5012722;28;20050;-48
2022/03/30 04:45:13;;;;;;;;;;;5.30;99.90;;;;;;5012589;28;20117;-50
2022/03/30 04:47:39;;;;;;;34.33;18.90;;;5.30;99.90;;;;;;5012478;28;20430;-48
2022/03/30 04:50:05;;;;;;;40.47;19.43;;;5.30;99.90;;;;;;5011329;28;20073;-48
2022/03/30 04:52:32;;;;;;;40.85;20.15;;;5.30;99.90;;;;;;5012231;28;20046;-49
2022/03/30 04:54:58;;;;;;;38.80;21.27;;;5.30;99.90;;;;;;5011607;28;20100;-49
2022/03/30 04:57:24;;;;;;;38.17;20.98;;;5.40;99.90;;;;;;5012016;28;20506;-49
2022/03/30 04:59:50;;;;;;;37.73;21.17;;;5.40;99.90;;;;;;5012416;28;20073;-48
2022/03/30 05:02:15;;;;;;;35.40;20.83;;;5.40;99.90;;;;;;5012079;28;20379;-50
2022/03/30 05:04:41;;;;;;;35.47;20.70;;;5.40;99.90;;;;;;5011845;28;20034;-52
2022/03/30 05:07:06;;;;;;;37.43;20.03;;;5.40;99.90;;;;;;5011787;28;20273;-49
2022/03/30 05:09:32;;;;;;;34.80;18.80;;;5.40;99.90;;;;;;5012167;28;20066;-49
2022/03/30 05:11:57;;;;;;;36.97;20.60;;;5.40;99.90;;;;;;5012115;28;20487;-50
2022/03/30 05:14:24;;;;;;;39.90;22.37;;;5.50;99.90;;;;;;5012055;28;20107;-53
2022/03/30 05:16:49;;;;;;;35.85;18.33;;;5.50;99.90;;;;;;5011737;28;20134;-48
2022/03/30 05:19:15;;;;;;;34.30;20.27;;;5.50;99.90;;;;;;5011651;28;20483;-49
2022/03/30 05:21:40;;;;;;;39.57;19.87;;;5.50;99.90;;;;;;5011690;28;20041;-51
2022/03/30 05:24:06;;;;;;;40.25;20.70;;;5.60;99.90;;;;;;5011685;28;20045;-49
2022/03/30 05:26:32;;;;;;;35.85;19.98;;;5.50;99.90;;;;;;5011597;28;20069;-51
2022/03/30 05:28:58;;;;;;;41.97;19.90;;;5.60;99.90;;;;;;5011461;28;20037;-49
2022/03/30 05:31:23;;;;;;;39.50;20.27;;;5.60;99.90;;;;;;5011994;28;20342;-51
2022/03/30 05:33:49;;;;;;;36.13;21.17;;;5.60;99.90;;;;;;5011901;28;20034;-50
2022/03/30 05:36:14;;;;;;;35.07;20.53;;;5.60;99.90;;;;;;5012003;28;20116;-49
2022/03/30 05:38:40;;;;;;;40.23;20.60;;;5.60;99.90;;;;;;5011148;28;20034;-49
2022/03/30 05:41:06;;;;;;;40.40;21.83;;;5.60;99.90;;;;;;5012034;28;20510;-49
2022/03/30 05:43:31;;;;;;;40.80;20.63;;;5.60;99.90;;;;;;5011867;28;20225;-49
2022/03/30 05:45:57;;;;;;;40.70;20.00;;;5.70;99.90;;;;;;5011231;28;20556;-51
2022/03/30 05:48:24;;;;;;;37.33;22.47;;;5.70;99.90;;;;;;5011426;28;20048;-47
2022/03/30 05:50:51;;;;;;;33.70;19.58;;;5.70;99.90;;;;;;5011481;28;20483;-50
2022/03/30 05:53:17;;;;;;;39.60;21.98;;;5.70;99.90;;;;;;5010892;28;20411;-51
2022/03/30 05:55:46;;;;;;;40.53;20.87;;;5.70;99.90;;;;;;5010890;28;20034;-50
2022/03/30 05:58:13;;;;;;;33.55;20.20;;;5.80;99.90;;;;;;5011028;28;20522;-51
2022/03/30 06:00:38;;;;;;;36.53;20.40;;;5.80;99.90;;;;;;5011134;28;20129;-50
2022/03/30 06:03:04;;;;;;;45.00;22.52;;;5.80;99.90;;;;;;5011544;28;20121;-50
2022/03/30 06:05:30;;;;;;;40.72;22.70;;;5.80;99.90;;;;;;5010506;28;20069;-50
2022/03/30 06:07:58;;;;;;;35.67;19.67;;;5.80;99.90;;;;;;5010208;28;20418;-48
2022/03/30 06:10:26;;;;;;;38.20;21.25;;;5.90;99.90;;;;;;5011197;28;20037;-49
2022/03/30 06:12:52;;;;;;;39.17;20.05;;;5.90;99.90;;;;;;5010946;28;20147;-49
2022/03/30 06:15:17;;;;;;;39.23;20.83;;;5.90;99.90;;;;;;5010680;28;20117;-51
2022/03/30 06:17:43;;;;;;;43.67;22.17;;;5.90;99.90;;;;;;5011023;28;20269;-50
2022/03/30 06:20:10;;;;;;;40.97;19.90;;;5.90;99.90;;;;;;5010828;28;20042;-49
2022/03/30 06:22:36;;;;;;;40.22;17.17;;;6.00;99.90;;;;;;5010149;28;20038;-50
2022/03/30 06:25:02;;;;;;;32.70;15.90;;;6.00;99.90;;;;;;5010389;28;20496;-48
2022/03/30 06:27:28;;;;;;;25.90;16.27;;;6.00;99.90;;;;;;5010510;28;20049;-49
2022/03/30 06:29:53;;;;;;;28.52;15.10;;;6.00;99.90;;;;;;5011126;28;20092;-49
2022/03/30 06:32:19;;;;;;;33.87;13.47;;;6.00;99.90;;;;;;5010565;28;20041;-48
2022/03/30 06:34:45;;;;;;;24.88;12.73;;;6.10;99.90;;;;;;5010149;28;20034;-49
2022/03/30 06:37:11;;;;;;;25.63;11.27;;;6.10;99.90;;;;;;5010305;28;20048;-48
2022/03/30 06:39:37;;;;;;;20.47;10.83;;;6.10;99.90;;;;;;5010561;28;20178;-50
2022/03/30 06:42:03;;;;;;;15.73;8.40;;;6.10;99.90;;;;;;5010652;28;20042;-49
2022/03/30 06:44:31;;;;;;;;;;;6.20;99.90;;;;;;5010690;28;20117;-49
2022/03/30 06:46:57;;;;;;;13.45;7.97;;;6.20;99.90;;;;;;5010425;28;20369;-50
2022/03/30 06:49:22;;;;;;;13.87;7.27;;;6.20;99.90;;;;;;5010537;28;20074;-49
2022/03/30 06:51:48;;;;;;;13.83;7.17;;;6.20;99.90;;;;;;5010432;28;20050;-48
2022/03/30 06:54:15;;;;;;;7.83;5.70;;;6.30;99.90;;;;;;5010378;28;20531;-49
2022/03/30 06:56:41;;;;;;;13.27;7.90;;;6.30;99.90;;;;;;5010171;28;20104;-49
2022/03/30 06:59:07;;;;;;;;;;;6.30;99.90;;;;;;5004264;28;20130;-49
2022/03/30 07:01:34;;;;;;;5.47;2.47;;;6.40;99.90;;;;;;5010293;28;20016;-48
2022/03/30 07:03:59;;;;;;;1.58;0.90;;;6.40;99.90;;;;;;5010105;28;20091;-48
2022/03/30 07:06:25;;;;;;;1.60;0.80;;;6.40;99.90;;;;;;5009866;28;20484;-50
2022/03/30 07:11:35;;;;;;;1.48;0.30;;;6.60;99.90;;;;;;5010541;28;20050;-50
2022/03/30 07:14:00;;;;;;;0.60;0.30;;;6.70;99.90;;;;;;5010706;28;20041;-50
2022/03/30 07:16:26;;;;;;;0.47;0.30;;;6.70;99.90;;;;;;5009659;28;20116;-49
2022/03/30 07:18:53;;;;;;;1.13;0.30;;;6.90;99.90;;;;;;5010712;28;20478;-51
2022/03/30 07:21:19;;;;;;;0.30;0.20;;;7.00;99.90;;;;;;5012117;28;20038;-49
2022/03/30 07:23:45;;;;;;;0.30;0.20;;;7.10;99.90;;;;;;5014144;28;20033;-50
2022/03/30 07:26:10;;;;;;;3.60;0.30;;;7.30;99.90;;;;;;5013639;28;20034;-50
2022/03/30 07:28:37;;;;;;;7.77;0.50;;;7.40;99.90;;;;;;5013807;28;20038;-50
2022/03/30 07:31:03;;;;;;;8.00;0.30;;;7.50;99.90;;;;;;5013761;28;20088;-49
2022/03/30 07:33:29;;;;;;;1.80;0.35;;;7.60;99.90;;;;;;5013398;28;20041;-50
2022/03/30 07:35:55;;;;;;;0.45;0.45;;;7.80;99.90;;;;;;5013679;28;20070;-51
2022/03/30 07:38:21;;;;;;;37.53;3.60;;;7.90;99.90;;;;;;5014109;28;20088;-50
2022/03/30 07:40:48;;;;;;;9.68;0.50;;;8.00;99.90;;;;;;5009012;28;20030;-50
2022/03/30 07:43:15;;;;;;;12.40;0.60;;;8.10;99.90;;;;;;4997873;28;20093;-54
2022/03/30 07:45:41;;;;;;;2.42;0.60;;;8.20;99.90;;;;;;5001583;28;20038;-51
2022/03/30 07:48:12;;;;;;;0.90;0.40;;;8.30;99.90;;;;;;5009484;28;20046;-51
2022/03/30 07:50:38;;;;;;;258.35;13.60;;;8.40;99.90;;;;;;5013513;28;20042;-54
2022/03/30 07:53:07;;;;;;;3.72;0.50;;;8.40;99.90;;;;;;4993410;28;20045;-50
2022/03/30 07:55:34;;;;;;;3.22;0.45;;;8.50;99.90;;;;;;4994151;28;20431;-51
2022/03/30 07:58:00;;;;;;;2.88;0.35;;;8.50;99.90;;;;;;5011243;28;20054;-52
2022/03/30 08:00:27;;;;;;;2.45;0.40;;;8.50;99.90;;;;;;4999148;28;20400;-51
2022/03/30 08:02:53;;;;;;;1.48;0.40;;;8.50;99.90;;;;;;4993510;28;20042;-50
2022/03/30 08:05:21;;;;;;;1.77;0.45;;;8.60;99.90;;;;;;4993324;28;20180;-53
2022/03/30 08:07:49;;;;;;;1.95;0.40;;;8.60;99.90;;;;;;4993639;28;20077;-51
2022/03/30 08:10:15;;;;;;;0.52;0.40;;;8.60;99.90;;;;;;5001018;28;20113;-50
2022/03/30 08:12:41;;;;;;;0.50;0.20;;;8.60;99.90;;;;;;4993203;28;20552;-50
2022/03/30 08:15:08;;;;;;;0.40;0.20;;;8.60;99.90;;;;;;4990624;28;20046;-48
2022/03/30 08:17:35;;;;;;;0.38;0.30;;;8.60;99.90;;;;;;4993398;28;20082;-52
2022/03/30 08:20:00;;;;;;;;;;;8.60;99.90;;;;;;4996330;28;20049;-50
2022/03/30 08:22:26;;;;;;;0.77;0.40;;;8.60;99.90;;;;;;5003747;28;19929;-52
2022/03/30 08:24:57;;;;;;;4.40;0.30;;;8.60;99.90;;;;;;4994207;28;20045;-49
2022/03/30 08:27:25;;;;;;;4.07;0.30;;;8.50;99.90;;;;;;4990088;28;20112;-50
2022/03/30 08:29:53;;;;;;;1.33;0.30;;;8.50;99.90;;;;;;4987815;28;20038;-50
2022/03/30 08:32:21;;;;;;;0.82;0.30;;;8.40;99.90;;;;;;5005283;28;20041;-49
2022/03/30 08:34:48;;;;;;;2.05;0.30;;;8.30;99.90;;;;;;5001049;28;20391;-49
2022/03/30 08:37:14;;;;;;;1.17;0.22;;;8.30;99.90;;;;;;4989160;28;20104;-52
2022/03/30 08:39:40;;;;;;;0.30;0.30;;;8.20;99.90;;;;;;4988857;28;20049;-50
2022/03/30 08:42:08;;;;;;;0.50;0.30;;;8.20;99.90;;;;;;4999691;28;20041;-50
2022/03/30 08:44:35;;;;;;;1.10;0.38;;;8.20;99.90;;;;;;5003071;28;20092;-50
2022/03/30 08:47:01;;;;;;;0.55;0.30;;;8.20;99.90;;;;;;4999337;28;20042;-49
2022/03/30 08:49:33;;;;;;;1.67;0.68;;;8.20;99.90;;;;;;5006148;28;20088;-47
2022/03/30 08:51:59;;;;;;;0.50;0.30;;;8.20;99.90;;;;;;5001039;28;20038;-50
2022/03/30 08:54:25;;;;;;;0.93;0.38;;;8.30;99.90;;;;;;4988614;28;20081;-49
2022/03/30 08:56:50;;;;;;;0.73;0.40;;;8.30;99.90;;;;;;5000480;28;20081;-50
2022/03/30 08:59:21;;;;;;;0.40;0.30;;;8.20;99.90;;;;;;5004128;28;20038;-51
2022/03/30 09:01:47;;;;;;;6.65;0.70;;;8.30;99.90;;;;;;5006170;28;20411;-49
2022/03/30 09:04:15;;;;;;;1.75;0.40;;;8.30;99.90;;;;;;5004745;28;20041;-48
2022/03/30 09:06:42;;;;;;;3.60;0.40;;;8.20;99.90;;;;;;5003517;28;20560;-49
2022/03/30 09:09:09;;;;;;;0.70;0.30;;;8.20;99.90;;;;;;4998989;28;20026;-50
2022/03/30 09:11:40;;;;;;;;;;;8.20;99.90;;;;;;5006398;28;20690;-49
2022/03/30 09:14:07;;;;;;;0.82;0.40;;;8.20;99.90;;;;;;5005035;28;20000;-49
2022/03/30 09:16:44;;;;;;;1.05;0.40;;;8.30;99.90;;;;;;5003035;28;20041;-49
2022/03/30 09:19:11;;;;;;;;;;;8.30;99.90;;;;;;5003999;28;20065;-49
2022/03/30 09:21:40;;;;;;;0.47;0.35;;;8.40;99.90;;;;;;5004719;28;20510;-49
2022/03/30 09:24:06;;;;;;;1.73;0.38;;;8.40;99.90;;;;;;5004956;28;20045;-49
2022/03/30 09:26:33;;;;;;;1.13;0.20;;;8.40;99.90;;;;;;5005154;28;20498;-50
2022/03/30 09:28:58;;;;;;;2.65;0.35;;;8.50;99.90;;;;;;5006264;28;20246;-49
2022/03/30 09:31:25;;;;;;;1.75;0.20;;;8.50;99.90;;;;;;5004707;28;20042;-51
2022/03/30 09:33:53;;;;;;;1.08;0.30;;;8.50;99.90;;;;;;5005724;28;20037;-51
2022/03/30 09:36:29;;;;;;;0.52;0.20;;;8.50;99.90;;;;;;5004393;28;20111;-51
2022/03/30 09:38:55;;;;;;;0.73;0.40;;;8.50;99.50;;;;;;5004931;28;20390;-50
2022/03/30 09:41:20;;;;;;;7.27;0.97;;;8.50;99.60;;;;;;5001256;28;20037;-49
2022/03/30 09:43:46;;;;;;;1.10;0.20;;;8.60;99.70;;;;;;5004703;28;20048;-50
2022/03/30 09:46:13;;;;;;;0.60;0.30;;;8.70;99.90;;;;;;5004612;28;20305;-50
2022/03/30 09:48:49;;;;;;;1.23;0.47;;;8.80;99.60;;;;;;5004121;28;20088;-48
2022/03/30 09:51:24;;;;;;;2.03;0.38;;;8.90;99.10;;;;;;5000288;28;20046;-50
2022/03/30 09:53:50;;;;;;;2.03;0.38;;;9.10;99.40;;;;;;5002860;28;20089;-49
2022/03/30 09:56:21;;;;;;;2.73;0.20;;;9.30;99.10;;;;;;5003182;28;20041;-51
2022/03/30 09:58:47;;;;;;;1.40;0.55;;;9.40;99.00;;;;;;5004609;28;20034;-49
2022/03/30 10:01:19;;;;;;;3.28;0.30;;;9.50;98.80;;;;;;5004978;28;20457;-50
2022/03/30 10:03:54;;;;;;;4.45;0.20;;;9.70;98.30;;;;;;5003768;28;20128;-51
2022/03/30 10:06:26;;;;;;;4.22;0.30;;;9.80;97.60;;;;;;5004494;28;20038;-51
2022/03/30 10:08:53;;;;;;;0.60;0.10;;;9.90;97.10;;;;;;4997655;28;20044;-52
2022/03/30 10:11:21;;;;;;;1.27;0.20;;;9.90;96.90;;;;;;5005008;28;20038;-50
2022/03/30 10:13:50;;;;;;;2.75;0.30;;;9.80;96.30;;;;;;5004108;28;20053;-53
2022/03/30 10:16:17;;;;;;;1.42;0.20;;;9.80;96.00;;;;;;5003571;28;20395;-50
2022/03/30 10:18:43;;;;;;;1.77;0.17;;;9.90;96.30;;;;;;5005618;28;20510;-54
2022/03/30 10:21:19;;;;;;;;;;;10.00;96.30;;;;;;5004605;28;20459;-52
2022/03/30 10:24:10;;;;;;;1.25;0.30;;;10.10;95.80;;;;;;5006172;28;19921;-51
2022/03/30 10:27:05;;;;;;;1.30;0.30;;;10.30;95.90;;;;;;5005774;28;20180;-52
2022/03/30 10:29:31;;;;;;;4.57;0.30;;;10.50;95.70;;;;;;5003816;28;20104;-51
2022/03/30 10:32:15;;;;;;;;;;;10.60;95.20;;;;;;5005087;28;20034;-51
2022/03/30 10:35:08;;;;;;;2.22;0.38;;;10.80;94.30;;;;;;5003799;28;19917;-51
2022/03/30 10:37:36;;;;;;;3.92;0.75;;;10.90;94.00;;;;;;5003973;28;20034;-50
2022/03/30 10:40:05;;;;;;;3.05;0.75;;;11.00;94.20;;;;;;5004219;28;20030;-52
2022/03/30 10:42:46;;;;;;;4.65;0.68;;;11.10;94.00;;;;;;5002497;28;20133;-50
2022/03/30 10:45:26;;;;;;;2.80;0.40;;;11.20;93.10;;;;;;5003016;28;20491;-54
2022/03/30 10:48:11;;;;;;;3.08;0.63;;;11.30;93.20;;;;;;5004740;28;20122;-50
2022/03/30 10:50:41;;;;;;;4.95;1.05;;;11.40;92.80;;;;;;5003670;28;20034;-50
2022/03/30 10:53:31;;;;;;;4.05;0.47;;;11.40;92.60;;;;;;5001581;28;20044;-51
2022/03/30 10:56:09;;;;;;;1.60;0.30;;;11.50;91.60;;;;;;5001781;28;20048;-50
2022/03/30 10:59:00;;;;;;;6.20;0.55;;;11.50;91.50;;;;;;5004062;28;20038;-50
2022/03/30 11:01:33;;;;;;;3.25;0.30;;;11.40;91.10;;;;;;5003408;28;20038;-54
2022/03/30 11:04:17;;;;;;;1.55;0.30;;;11.40;91.00;;;;;;5005688;28;20029;-50
2022/03/30 11:07:06;;;;;;;1.58;0.30;;;11.30;91.50;;;;;;5004488;28;20069;-50
2022/03/30 11:09:33;;;;;;;1.88;0.50;;;11.30;90.60;;;;;;4999002;28;20594;-49
2022/03/30 11:12:05;;;;;;;3.00;0.30;;;11.20;90.50;;;;;;5002905;28;20102;-49
2022/03/30 11:14:39;;;;;;;3.33;0.60;;;11.20;90.30;;;;;;5002641;28;20042;-52
2022/03/30 11:17:13;;;;;;;2.55;0.30;;;11.10;90.40;;;;;;5001858;28;20237;-51
2022/03/30 11:19:48;;;;;;;3.80;0.38;;;11.10;90.40;;;;;;5003694;28;20042;-50
2022/03/30 11:22:26;;;;;;;1.85;0.30;;;11.10;90.00;;;;;;5001952;28;20050;-51
2022/03/30 11:25:13;;;;;;;1.02;0.20;;;11.00;90.10;;;;;;5004143;28;20564;-50
2022/03/30 11:27:40;;;;;;;1.42;0.35;;;11.10;90.20;;;;;;5001642;28;20033;-49
2022/03/30 11:30:21;;;;;;;3.58;0.60;;;11.10;89.50;;;;;;5004279;28;20108;-50
2022/03/30 11:32:49;;;;;;;3.08;0.35;;;11.10;89.40;;;;;;5004054;28;20091;-50
2022/03/30 11:35:17;;;;;;;4.75;0.30;;;11.10;88.90;;;;;;5003542;28;20487;-51
2022/03/30 11:37:42;;;;;;;3.08;0.40;;;11.00;89.10;;;;;;5004248;28;20034;-53
2022/03/30 11:40:18;;;;;;;0.53;0.30;;;11.00;89.60;;;;;;5003678;28;20037;-51
2022/03/30 11:42:50;;;;;;;3.22;0.90;;;11.00;88.60;;;;;;5004596;28;20034;-50
2022/03/30 11:45:20;;;;;;;1.52;0.30;;;11.00;88.60;;;;;;5002719;28;20038;-54
2022/03/30 11:47:56;;;;;;;2.83;0.30;;;11.00;88.60;;;;;;5003195;28;20910;-50
2022/03/30 11:50:37;;;;;;;0.88;0.20;;;11.00;89.20;;;;;;5004237;28;20046;-50
2022/03/30 11:53:32;;;;;;;2.17;0.25;;;10.90;88.20;;;;;;5001855;28;20034;-51
2022/03/30 11:56:08;;;;;;;3.40;0.20;;;11.00;87.20;;;;;;5003417;28;20121;-52
2022/03/30 11:58:37;;;;;;;0.73;0.30;;;11.00;86.60;;;;;;5003751;28;20096;-51
2022/03/30 12:01:08;;;;;;;0.68;0.20;;;11.00;85.70;;;;;;5002100;28;20424;-50
2022/03/30 12:03:34;;;;;;;3.03;0.68;;;10.90;85.80;;;;;;5000002;28;20048;-49
2022/03/30 12:06:03;;;;;;;3.13;0.57;;;10.80;86.50;;;;;;5004897;28;20430;-50
2022/03/30 12:08:43;;;;;;;5.07;0.35;;;10.80;86.60;;;;;;5000636;28;20037;-52
2022/03/30 12:11:09;;;;;;;4.70;0.40;;;10.70;87.00;;;;;;5007268;28;20069;-50
2022/03/30 12:13:35;;;;;;;0.80;0.30;;;10.60;87.30;;;;;;5002223;28;20151;-50
2022/03/30 12:16:08;;;;;;;1.42;0.57;;;10.50;87.60;;;;;;5001354;28;20300;-53
2022/03/30 12:18:44;;;;;;;1.98;0.30;;;10.40;87.10;;;;;;5002572;28;20029;-51
2022/03/30 12:21:13;;;;;;;1.23;0.30;;;10.30;87.00;;;;;;5002094;28;20045;-53
2022/03/30 12:23:59;;;;;;;2.85;0.30;;;10.20;87.60;;;;;;5004661;28;20483;-49
2022/03/30 12:26:25;;;;;;;1.48;0.20;;;10.20;87.30;;;;;;5002748;28;20111;-50
2022/03/30 12:29:05;;;;;;;1.52;0.20;;;10.10;87.20;;;;;;5006679;28;20037;-50
2022/03/30 12:31:37;;;;;;;1.42;0.40;;;10.20;86.70;;;;;;5004579;28;20044;-53
2022/03/30 12:34:11;;;;;;;2.25;0.30;;;10.20;86.60;;;;;;5002338;28;20066;-51
2022/03/30 12:36:46;;;;;;;1.90;0.40;;;10.20;87.20;;;;;;5007020;28;20038;-51
2022/03/30 12:39:24;;;;;;;1.77;0.30;;;10.20;87.20;;;;;;5004339;28;20563;-50
2022/03/30 12:42:09;;;;;;;1.45;0.32;;;10.30;87.30;;;;;;4995357;28;20074;-54
2022/03/30 12:44:47;;;;;;;1.27;0.20;;;10.30;86.90;;;;;;5006918;28;20423;-53
2022/03/30 12:47:30;;;;;;;0.28;0.20;;;10.40;85.90;;;;;;5002284;28;20042;-55
2022/03/30 12:49:58;;;;;;;1.15;0.20;;;10.40;85.50;;;;;;5008737;28;20030;-50
2022/03/30 12:52:32;;;;;;;2.88;0.20;;;10.50;86.40;;;;;;5006688;28;20042;-49
2022/03/30 12:55:21;;;;;;;1.15;0.30;;;10.60;85.60;;;;;;5004887;28;20069;-53
2022/03/30 12:58:15;;;;;;;1.13;0.25;;;10.70;85.50;;;;;;5004623;28;20522;-51
2022/03/30 13:00:51;;;;;;;1.48;0.40;;;10.80;85.00;;;;;;4999893;28;20049;-51